createdAt,value
2022-08-07T00:00:05.844Z,98956.69
2022-08-07T00:01:44.186Z,98958.13
2022-08-07T00:02:41.607Z,98951.88
2022-08-07T00:03:47.378Z,98961.81
2022-08-07T00:04:49.169Z,98949.06
2022-08-07T00:05:50.694Z,98952.53
2022-08-07T00:06:52.471Z,98957.13
2022-08-07T00:07:59.638Z,98953.19
2022-08-07T00:09:16.350Z,98949.28
2022-08-07T00:10:25.896Z,98959.31
2022-08-07T00:11:30.066Z,98952.31
2022-08-07T00:12:34.933Z,98956.88
2022-08-07T00:13:56.791Z,98958.75
2022-08-07T00:14:58.834Z,98957.19
2022-08-07T00:16:00.420Z,98951.06
2022-08-07T00:17:03.947Z,98955.66
2022-08-07T00:18:08.157Z,98952.19
2022-08-07T00:19:21.510Z,98956.75
2022-08-07T00:20:29.825Z,98954.41
2022-08-07T00:21:56.729Z,98957.41
2022-08-07T00:22:57.383Z,98963.44
2022-08-07T00:24:00.568Z,98951.50
2022-08-07T00:25:04.875Z,98952.72
2022-08-07T00:26:18.559Z,98945.50
2022-08-07T00:27:51.668Z,98954.63
2022-08-07T00:28:56.846Z,98956.19
2022-08-07T00:29:58.745Z,98953.53
2022-08-07T00:31:06.432Z,98952.72
2022-08-07T00:32:15.113Z,98953.41
2022-08-07T00:33:17.305Z,98959.88
2022-08-07T00:34:19.191Z,98957.19
2022-08-07T00:35:23.411Z,98947.91
2022-08-07T00:36:25.550Z,98952.81
2022-08-07T00:37:30.594Z,98956.94
2022-08-07T00:38:50.485Z,98956.16
2022-08-07T00:39:54.227Z,98957.63
2022-08-07T00:40:56.417Z,98953.69
2022-08-07T00:42:01.665Z,98952.78
2022-08-07T00:43:04.801Z,98951.88
2022-08-07T00:44:11.678Z,98949.31
2022-08-07T00:45:16.670Z,98961.16
2022-08-07T00:46:19.952Z,98946.66
2022-08-07T00:48:07.583Z,98953.47
2022-08-07T00:48:45.555Z,98949.97
2022-08-07T00:50:21.132Z,98947.50
2022-08-07T00:51:14.250Z,98956.00
2022-08-07T00:52:19.905Z,98952.56
2022-08-07T00:53:21.957Z,98960.09
2022-08-07T00:54:23.582Z,98955.53
2022-08-07T00:56:02.683Z,98947.97
2022-08-07T00:56:49.908Z,98956.34
2022-08-07T00:57:55.185Z,98951.63
2022-08-07T00:58:58.559Z,98956.22
2022-08-07T01:00:00.177Z,98949.31
2022-08-07T01:01:02.063Z,98951.63
2022-08-07T01:02:14.093Z,98946.94
2022-08-07T01:03:55.358Z,98951.16
2022-08-07T01:04:51.654Z,98953.41
2022-08-07T01:05:56.510Z,98953.75
2022-08-07T01:06:58.116Z,98955.94
2022-08-07T01:07:59.622Z,98950.16
2022-08-07T01:09:02.826Z,98954.72
2022-08-07T01:10:11.243Z,98957.06
2022-08-07T01:12:09.144Z,98949.38
2022-08-07T01:12:54.042Z,98957.41
2022-08-07T01:13:58.711Z,98949.38
2022-08-07T01:15:01.197Z,98955.03
2022-08-07T01:16:05.908Z,98950.50
2022-08-07T01:17:09.070Z,98958.53
2022-08-07T01:18:11.123Z,98952.69
2022-08-07T01:19:21.422Z,98952.25
2022-08-07T01:20:33.658Z,98954.47
2022-08-07T01:21:45.725Z,98955.91
2022-08-07T01:23:07.416Z,98949.66
2022-08-07T01:24:11.224Z,98949.66
2022-08-07T01:25:55.098Z,98950.44
2022-08-07T01:26:34.976Z,98948.09
2022-08-07T01:27:37.369Z,98941.19
2022-08-07T01:28:46.293Z,98941.50
2022-08-07T01:29:54.696Z,98940.84
2022-08-07T01:30:58.723Z,98951.88
2022-08-07T01:32:01.340Z,98948.88
2022-08-07T01:33:07.403Z,98947.31
2022-08-07T01:34:11.674Z,98941.50
2022-08-07T01:35:17.280Z,98946.06
2022-08-07T01:36:21.184Z,98947.94
2022-08-07T01:37:37.416Z,98945.28
2022-08-07T01:38:39.987Z,98946.41
2022-08-07T01:39:52.063Z,98942.81
2022-08-07T01:41:04.621Z,98945.63
2022-08-07T01:42:39.658Z,98953.31
2022-08-07T01:43:34.669Z,98942.59
2022-08-07T01:44:41.914Z,98949.19
2022-08-07T01:45:46.618Z,98944.63
2022-08-07T01:46:53.243Z,98945.06
2022-08-07T01:48:19.126Z,98944.16
2022-08-07T01:49:17.646Z,98946.97
2022-08-07T01:50:29.031Z,98944.28
2022-08-07T01:52:02.524Z,98947.31
2022-08-07T01:52:57.692Z,98949.50
2022-08-07T01:54:09.534Z,98943.25
2022-08-07T01:55:22.334Z,98942.47
2022-08-07T01:56:32.794Z,98945.16
2022-08-07T01:58:05.471Z,98943.59
2022-08-07T01:59:07.611Z,98943.59
2022-08-07T02:00:17.413Z,98933.22
2022-08-07T02:01:59.179Z,98941.56
2022-08-07T02:03:18.877Z,98937.31
2022-08-07T02:04:26.650Z,98942.38
2022-08-07T02:05:47.627Z,98935.72
2022-08-07T02:06:54.268Z,98938.25
2022-08-07T02:08:01.051Z,98942.53
2022-08-07T02:09:51.713Z,98937.19
2022-08-07T02:10:42.294Z,98937.00
2022-08-07T02:12:03.798Z,98936.53
2022-08-07T02:13:10.749Z,98934.94
2022-08-07T02:14:35.730Z,98930.72
2022-08-07T02:15:40.198Z,98944.69
2022-08-07T02:16:42.541Z,98937.59
2022-08-07T02:17:49.814Z,98939.00
2022-08-07T02:18:54.485Z,98929.94
2022-08-07T02:20:05.372Z,98931.34
2022-08-07T02:21:13.755Z,98923.53
2022-08-07T02:22:19.165Z,98919.16
2022-08-07T02:23:23.969Z,98924.97
2022-08-07T02:24:29.659Z,98919.94
2022-08-07T02:26:30.436Z,98924.50
2022-08-07T02:27:00.113Z,98923.72
2022-08-07T02:28:04.742Z,98927.19
2022-08-07T02:29:13.679Z,98920.63
2022-08-07T02:30:17.707Z,98917.81
2022-08-07T02:31:29.120Z,98919.81
2022-08-07T02:32:33.639Z,98921.41
2022-08-07T02:34:01.464Z,98924.25
2022-08-07T02:35:01.137Z,98912.66
2022-08-07T02:36:29.723Z,98916.75
2022-08-07T02:37:34.077Z,98925.09
2022-08-07T02:38:40.351Z,98914.25
2022-08-07T02:40:12.139Z,98919.63
2022-08-07T02:41:21.704Z,98916.50
2022-08-07T02:42:25.633Z,98919.63
2022-08-07T02:43:28.331Z,98911.59
2022-08-07T02:44:34.709Z,98918.38
2022-08-07T02:45:59.378Z,98915.25
2022-08-07T02:47:06.704Z,98923.25
2022-08-07T02:48:10.070Z,98915.25
2022-08-07T02:49:12.164Z,98923.59
2022-08-07T02:50:34.311Z,98922.34
2022-08-07T02:51:49.753Z,98921.25
2022-08-07T02:53:12.579Z,98923.94
2022-08-07T02:54:16.608Z,98915.78
2022-08-07T02:56:02.469Z,98914.50
2022-08-07T02:56:54.742Z,98912.66
2022-08-07T02:58:02.307Z,98920.34
2022-08-07T02:59:09.141Z,98911.97
2022-08-07T03:00:13.862Z,98909.25
2022-08-07T03:01:35.527Z,98900.44
2022-08-07T03:02:54.400Z,98903.00
2022-08-07T03:03:58.455Z,98901.75
2022-08-07T03:05:06.809Z,98903.75
2022-08-07T03:06:16.547Z,98912.13
2022-08-07T03:07:21.519Z,98911.34
2022-08-07T03:08:42.595Z,98905.06
2022-08-07T03:09:48.251Z,98909.44
2022-08-07T03:10:52.808Z,98899.88
2022-08-07T03:12:04.731Z,98905.84
2022-08-07T03:13:09.617Z,98905.06
2022-08-07T03:14:13.255Z,98906.19
2022-08-07T03:15:14.988Z,98900.38
2022-08-07T03:16:33.089Z,98899.59
2022-08-07T03:17:52.694Z,98898.03
2022-08-07T03:18:56.798Z,98910.28
2022-08-07T03:19:58.729Z,98904.94
2022-08-07T03:21:04.189Z,98909.50
2022-08-07T03:22:06.542Z,98912.94
2022-08-07T03:23:19.240Z,98899.16
2022-08-07T03:24:27.526Z,98905.28
2022-08-07T03:25:40.098Z,98910.94
2022-08-07T03:26:58.404Z,98907.47
2022-08-07T03:28:09.390Z,98911.25
2022-08-07T03:29:25.031Z,98908.91
2022-08-07T03:30:32.171Z,98907.66
2022-08-07T03:31:56.466Z,98908.78
2022-08-07T03:33:00.987Z,98921.03
2022-08-07T03:34:07.682Z,98912.88
2022-08-07T03:35:17.335Z,98920.91
2022-08-07T03:36:25.822Z,98922.47
2022-08-07T03:37:46.122Z,98919.47
2022-08-07T03:39:07.408Z,98919.78
2022-08-07T03:40:15.485Z,98915.88
2022-08-07T03:41:18.414Z,98917.13
2022-08-07T03:42:40.676Z,98913.19
2022-08-07T03:43:56.898Z,98916.69
2022-08-07T03:45:01.489Z,98920.31
2022-08-07T03:46:10.353Z,98910.72
2022-08-07T03:47:22.719Z,98919.06
2022-08-07T03:48:26.228Z,98911.81
2022-08-07T03:49:32.390Z,98923.78
2022-08-07T03:50:34.977Z,98915.28
2022-08-07T03:51:47.655Z,98919.19
2022-08-07T03:53:00.995Z,98914.97
2022-08-07T03:54:33.732Z,98920.63
2022-08-07T03:55:57.617Z,98911.81
2022-08-07T03:57:03.395Z,98913.56
2022-08-07T03:58:32.979Z,98909.00
2022-08-07T03:59:27.727Z,98899.75
2022-08-07T04:00:35.497Z,98908.56
2022-08-07T04:01:43.176Z,98903.84
2022-08-07T04:02:47.711Z,98900.22
2022-08-07T04:04:04.907Z,98908.22
2022-08-07T04:05:09.401Z,98907.00
2022-08-07T04:06:38.449Z,98912.00
2022-08-07T04:07:41.749Z,98907.00
2022-08-07T04:08:45.834Z,98908.88
2022-08-07T04:09:50.280Z,98916.56
2022-08-07T04:12:23.436Z,98912.00
2022-08-07T04:12:27.890Z,98913.13
2022-08-07T04:14:10.006Z,98913.13
2022-08-07T04:14:56.961Z,98911.22
2022-08-07T04:15:58.753Z,98912.50
2022-08-07T04:17:03.221Z,98915.47
2022-08-07T04:18:57.025Z,98919.25
2022-08-07T04:19:50.868Z,98920.94
2022-08-07T04:20:54.425Z,98926.56
2022-08-07T04:22:05.364Z,98924.69
2022-08-07T04:23:19.219Z,98931.59
2022-08-07T04:24:30.736Z,98925.00
2022-08-07T04:25:40.822Z,98925.78
2022-08-07T04:26:44.482Z,98925.91
2022-08-07T04:27:59.270Z,98928.25
2022-08-07T04:29:04.041Z,98930.16
2022-08-07T04:30:11.728Z,98927.81
2022-08-07T04:31:38.751Z,98933.50
2022-08-07T04:32:58.315Z,98935.38
2022-08-07T04:34:02.807Z,98936.16
2022-08-07T04:35:07.064Z,98934.28
2022-08-07T04:36:09.504Z,98946.53
2022-08-07T04:37:15.267Z,98939.47
2022-08-07T04:38:22.956Z,98944.78
2022-08-07T04:39:26.242Z,98946.00
2022-08-07T04:40:29.960Z,98949.16
2022-08-07T04:41:36.846Z,98942.34
2022-08-07T04:42:38.831Z,98944.06
2022-08-07T04:44:10.532Z,98945.75
2022-08-07T04:45:12.994Z,98951.25
2022-08-07T04:47:07.758Z,98952.44
2022-08-07T04:48:23.924Z,98945.25
2022-08-07T04:49:38.786Z,98948.53
2022-08-07T04:50:53.100Z,98947.88
2022-08-07T04:52:07.903Z,98953.06
2022-08-07T04:54:01.879Z,98947.63
2022-08-07T04:58:12.788Z,98949.44
2022-08-07T04:58:14.030Z,98946.56
2022-08-07T05:00:30.945Z,98942.38
2022-08-07T05:02:20.464Z,98942.34
2022-08-07T05:04:07.985Z,98948.22
2022-08-07T05:05:53.155Z,98947.41
2022-08-07T05:06:53.093Z,98950.72
2022-08-07T05:08:59.287Z,98944.31
2022-08-07T05:09:54.087Z,98944.88
2022-08-07T05:11:05.394Z,98949.72
2022-08-07T05:12:15.629Z,98949.81
2022-08-07T05:14:56.174Z,98945.66
2022-08-07T05:15:04.410Z,98946.03
2022-08-07T05:16:14.234Z,98947.59
2022-08-07T05:17:52.156Z,98947.59
2022-08-07T05:19:10.111Z,98950.72
2022-08-07T05:20:16.028Z,98951.09
2022-08-07T05:21:25.274Z,98949.59
2022-08-07T05:22:45.188Z,98957.22
2022-08-07T05:23:57.132Z,98950.88
2022-08-07T05:25:00.450Z,98951.91
2022-08-07T05:26:11.700Z,98952.94
2022-08-07T05:28:02.760Z,98955.47
2022-08-07T05:28:48.730Z,98958.28
2022-08-07T05:29:56.402Z,98953.38
2022-08-07T05:30:59.725Z,98953.84
2022-08-07T05:32:04.251Z,98962.91
2022-08-07T05:33:09.019Z,98953.09
2022-08-07T05:34:15.693Z,98953.34
2022-08-07T05:35:23.806Z,98960.06
2022-08-07T05:36:38.993Z,98963.19
2022-08-07T05:37:46.250Z,98963.03
2022-08-07T05:40:13.942Z,98957.38
2022-08-07T05:40:36.633Z,98953.91
2022-08-07T05:42:00.540Z,98958.91
2022-08-07T05:43:05.157Z,98954.34
2022-08-07T05:44:13.426Z,98958.91
2022-08-07T05:45:45.990Z,98960.38
2022-08-07T05:46:44.117Z,98964.56
2022-08-07T05:48:01.406Z,98967.72
2022-08-07T05:49:12.441Z,98962.84
2022-08-07T05:50:17.024Z,98959.09
2022-08-07T05:51:19.528Z,98965.44
2022-08-07T05:52:32.349Z,98958.88
2022-08-07T05:54:09.648Z,98963.78
2022-08-07T05:54:59.262Z,98967.31
2022-08-07T05:56:12.365Z,98961.91
2022-08-07T05:57:18.014Z,98966.81
2022-08-07T05:58:36.208Z,98974.66
2022-08-07T05:59:57.311Z,98972.78
2022-08-07T06:01:05.069Z,98979.72
2022-08-07T06:02:08.346Z,98974.72
2022-08-07T06:03:11.831Z,98960.84
2022-08-07T06:04:19.545Z,98974.13
2022-08-07T06:05:25.862Z,98975.06
2022-08-07T06:06:29.843Z,98971.53
2022-08-07T06:08:14.726Z,98972.69
2022-08-07T06:08:59.733Z,98968.31
2022-08-07T06:10:05.778Z,98977.63
2022-08-07T06:11:08.885Z,98983.25
2022-08-07T06:12:12.431Z,98970.31
2022-08-07T06:13:17.554Z,98970.34
2022-08-07T06:14:20.964Z,98974.75
2022-08-07T06:15:39.425Z,98975.94
2022-08-07T06:16:49.988Z,98974.31
2022-08-07T06:17:55.362Z,98978.56
2022-08-07T06:19:01.005Z,98973.97
2022-08-07T06:20:04.000Z,98976.25
2022-08-07T06:22:14.979Z,98972.28
2022-08-07T06:22:38.464Z,98967.84
2022-08-07T06:24:45.794Z,98973.63
2022-08-07T06:25:22.840Z,98973.94
2022-08-07T06:26:27.262Z,98972.78
2022-08-07T06:27:44.052Z,98963.84
2022-08-07T06:28:54.339Z,98962.66
2022-08-07T06:29:57.490Z,98973.50
2022-08-07T06:31:00.084Z,98976.47
2022-08-07T06:32:03.673Z,98968.78
2022-08-07T06:33:09.731Z,98967.25
2022-08-07T06:34:20.406Z,98966.94
2022-08-07T06:35:23.094Z,98969.66
2022-08-07T06:36:35.245Z,98970.19
2022-08-07T06:37:43.922Z,98966.06
2022-08-07T06:38:51.608Z,98966.91
2022-08-07T06:40:17.188Z,98967.50
2022-08-07T06:42:01.970Z,98967.03
2022-08-07T06:43:21.644Z,98965.91
2022-08-07T06:44:42.113Z,98960.16
2022-08-07T06:45:44.344Z,98959.50
2022-08-07T06:46:53.633Z,98954.44
2022-08-07T06:48:08.268Z,98957.06
2022-08-07T06:49:16.908Z,98953.44
2022-08-07T06:50:19.052Z,98948.38
2022-08-07T06:51:31.320Z,98956.28
2022-08-07T06:52:41.817Z,98948.03
2022-08-07T06:54:12.096Z,98954.53
2022-08-07T06:55:34.051Z,98958.06
2022-08-07T06:56:49.343Z,98953.22
2022-08-07T06:58:01.517Z,98961.47
2022-08-07T07:00:13.372Z,98953.09
2022-08-07T07:00:38.762Z,98957.63
2022-08-07T07:01:50.840Z,98955.03
2022-08-07T07:02:58.202Z,98954.59
2022-08-07T07:04:32.996Z,98952.34
2022-08-07T07:06:05.664Z,98951.47
2022-08-07T07:07:00.334Z,98953.25
2022-08-07T07:08:07.397Z,98952.22
2022-08-07T07:09:18.185Z,98953.69
2022-08-07T07:10:31.496Z,98947.13
2022-08-07T07:12:09.096Z,98949.09
2022-08-07T07:12:59.938Z,98951.53
2022-08-07T07:14:05.156Z,98951.22
2022-08-07T07:15:32.421Z,98959.34
2022-08-07T07:16:49.982Z,98954.31
2022-08-07T07:18:07.320Z,98960.88
2022-08-07T07:19:54.713Z,98956.00
2022-08-07T07:20:44.014Z,98951.31
2022-08-07T07:22:04.594Z,98953.53
2022-08-07T07:24:11.241Z,98952.06
2022-08-07T07:24:32.950Z,98950.75
2022-08-07T07:26:35.673Z,98947.41
2022-08-07T07:27:03.954Z,98952.78
2022-08-07T07:28:48.513Z,98952.28
2022-08-07T07:30:09.829Z,98951.38
2022-08-07T07:31:44.310Z,98951.72
2022-08-07T07:32:47.347Z,98942.66
2022-08-07T07:33:57.081Z,98952.38
2022-08-07T07:35:01.977Z,98942.66
2022-08-07T07:36:13.251Z,98947.03
2022-08-07T07:37:44.447Z,98946.41
2022-08-07T07:38:40.432Z,98939.72
2022-08-07T07:39:54.793Z,98950.56
2022-08-07T07:41:02.584Z,98936.50
2022-08-07T07:42:13.998Z,98948.72
2022-08-07T07:43:27.552Z,98947.91
2022-08-07T07:44:49.689Z,98942.75
2022-08-07T07:46:36.752Z,98944.69
2022-08-07T07:47:22.741Z,98951.59
2022-08-07T07:48:35.201Z,98953.06
2022-08-07T07:50:33.400Z,98954.25
2022-08-07T07:51:02.644Z,98946.75
2022-08-07T07:52:11.050Z,98943.69
2022-08-07T07:53:23.066Z,98946.81
2022-08-07T07:54:27.961Z,98939.44
2022-08-07T07:55:37.304Z,98944.94
2022-08-07T07:56:41.244Z,98939.06
2022-08-07T07:57:53.331Z,98931.78
2022-08-07T07:58:58.519Z,98936.41
2022-08-07T08:00:02.537Z,98936.78
2022-08-07T08:02:02.512Z,98936.78
2022-08-07T08:02:39.745Z,98931.31
2022-08-07T08:04:10.121Z,98939.47
2022-08-07T08:05:16.283Z,98939.13
2022-08-07T08:06:19.550Z,98927.47
2022-08-07T08:07:24.261Z,98932.50
2022-08-07T08:08:39.460Z,98925.91
2022-08-07T08:09:52.241Z,98924.41
2022-08-07T08:11:16.569Z,98933.66
2022-08-07T08:12:43.171Z,98917.00
2022-08-07T08:13:53.695Z,98926.31
2022-08-07T08:14:57.298Z,98922.03
2022-08-07T08:16:02.254Z,98919.34
2022-08-07T08:17:55.554Z,98923.59
2022-08-07T08:18:29.817Z,98925.16
2022-08-07T08:20:17.116Z,98929.03
2022-08-07T08:20:55.760Z,98920.50
2022-08-07T08:22:03.147Z,98918.19
2022-08-07T08:23:09.309Z,98916.25
2022-08-07T08:24:19.721Z,98919.34
2022-08-07T08:25:42.752Z,98917.41
2022-08-07T08:26:54.829Z,98920.88
2022-08-07T08:28:03.722Z,98923.59
2022-08-07T08:29:08.309Z,98923.63
2022-08-07T08:30:14.335Z,98922.84
2022-08-07T08:31:30.260Z,98916.63
2022-08-07T08:32:58.712Z,98922.81
2022-08-07T08:34:04.006Z,98918.97
2022-08-07T08:35:09.620Z,98918.19
2022-08-07T08:36:11.915Z,98916.63
2022-08-07T08:37:59.358Z,98912.75
2022-08-07T08:38:41.913Z,98917.78
2022-08-07T08:39:54.650Z,98916.59
2022-08-07T08:41:13.157Z,98915.84
2022-08-07T08:42:40.436Z,98919.72
2022-08-07T08:44:02.684Z,98909.25
2022-08-07T08:45:41.528Z,98913.50
2022-08-07T08:47:25.783Z,98909.66
2022-08-07T08:48:39.663Z,98904.97
2022-08-07T08:50:05.020Z,98911.19
2022-08-07T08:51:49.658Z,98912.75
2022-08-07T08:53:06.231Z,98912.34
2022-08-07T08:54:19.741Z,98905.00
2022-08-07T08:55:54.914Z,98904.22
2022-08-07T08:56:53.134Z,98908.88
2022-08-07T08:58:02.805Z,98908.47
2022-08-07T08:59:20.399Z,98910.44
2022-08-07T09:00:30.145Z,98907.72
2022-08-07T09:02:08.999Z,98906.56
2022-08-07T09:03:47.341Z,98912.38
2022-08-07T09:04:57.697Z,98903.06
2022-08-07T09:06:17.873Z,98905.78
2022-08-07T09:07:34.019Z,98901.13
2022-08-07T09:09:00.180Z,98896.03
2022-08-07T09:10:15.752Z,98904.59
2022-08-07T09:11:50.485Z,98906.94
2022-08-07T09:13:19.918Z,98898.78
2022-08-07T09:16:21.902Z,98901.13
2022-08-07T09:16:56.157Z,98906.53
2022-08-07T09:18:16.817Z,98901.50
2022-08-07T09:19:51.418Z,98897.25
2022-08-07T09:21:13.952Z,98907.31
2022-08-07T09:24:31.523Z,98896.47
2022-08-07T09:24:54.533Z,98899.19
2022-08-07T09:26:06.538Z,98900.72
2022-08-07T09:27:24.381Z,98900.34
2022-08-07T09:30:05.236Z,98906.16
2022-08-07T09:30:09.154Z,98898.00
2022-08-07T09:31:25.817Z,98903.44
2022-08-07T09:33:05.551Z,98908.84
2022-08-07T09:34:26.197Z,98908.88
2022-08-07T09:36:03.472Z,98901.91
2022-08-07T09:37:15.271Z,98899.19
2022-08-07T09:38:31.379Z,98906.56
2022-08-07T09:39:57.957Z,98898.00
2022-08-07T09:41:23.681Z,98900.34
2022-08-07T09:43:08.372Z,98899.56
2022-08-07T09:47:52.478Z,98906.19
2022-08-07T09:48:50.205Z,98898.03
2022-08-07T09:50:43.678Z,98893.75
2022-08-07T09:52:34.167Z,98886.03
2022-08-07T09:53:41.215Z,98880.56
2022-08-07T09:55:17.246Z,98885.63
2022-08-07T09:56:43.660Z,98886.78
2022-08-07T09:58:16.932Z,98892.19
2022-08-07T10:00:00.681Z,98879.78
2022-08-07T10:01:52.271Z,98879.03
2022-08-07T10:04:05.432Z,98875.16
2022-08-07T10:05:13.860Z,98870.09
2022-08-07T10:06:37.649Z,98867.78
2022-08-07T10:08:16.235Z,98861.56
2022-08-07T10:10:02.625Z,98863.84
2022-08-07T10:12:01.886Z,98852.97
2022-08-07T10:13:54.844Z,98862.97
2022-08-07T10:15:30.282Z,98850.19
2022-08-07T10:17:20.961Z,98868.81
2022-08-07T10:18:41.069Z,98863.47
2022-08-07T10:20:13.314Z,98862.72
2022-08-07T10:22:14.198Z,98850.31
2022-08-07T10:24:06.045Z,98851.13
2022-08-07T10:24:51.297Z,98852.22
2022-08-07T10:26:03.152Z,98845.56
2022-08-07T10:27:16.590Z,98845.91
2022-08-07T10:28:30.334Z,98839.66
2022-08-07T10:29:43.418Z,98834.53
2022-08-07T10:31:31.447Z,98841.09
2022-08-07T10:33:30.801Z,98839.22
2022-08-07T10:35:56.059Z,98835.75
2022-08-07T10:37:48.119Z,98829.44
2022-08-07T10:39:05.619Z,98830.91
2022-08-07T10:40:34.034Z,98837.94
2022-08-07T10:41:53.271Z,98829.88
2022-08-07T10:43:14.055Z,98826.78
2022-08-07T10:44:38.379Z,98831.38
2022-08-07T10:45:58.448Z,98823.88
2022-08-07T10:47:14.246Z,98819.13
2022-08-07T10:48:34.993Z,98821.03
2022-08-07T10:49:58.847Z,98821.66
2022-08-07T10:51:07.493Z,98825.22
2022-08-07T10:52:51.860Z,98823.81
2022-08-07T10:54:09.474Z,98823.03
2022-08-07T10:55:38.148Z,98823.81
2022-08-07T10:56:53.019Z,98812.09
2022-08-07T10:58:15.382Z,98807.84
2022-08-07T10:59:47.278Z,98808.38
2022-08-07T11:01:16.198Z,98812.63
2022-08-07T11:02:53.910Z,98813.81
2022-08-07T11:04:23.026Z,98807.41
2022-08-07T11:06:02.715Z,98804.44
2022-08-07T11:07:58.289Z,98794.59
2022-08-07T11:08:54.564Z,98799.00
2022-08-07T11:10:09.504Z,98800.53
2022-08-07T11:11:25.334Z,98791.41
2022-08-07T11:12:43.418Z,98790.84
2022-08-07T11:14:44.576Z,98790.78
2022-08-07T11:15:31.586Z,98785.16
2022-08-07T11:16:38.858Z,98792.53
2022-08-07T11:17:53.749Z,98791.81
2022-08-07T11:19:21.571Z,98778.63
2022-08-07T11:20:41.781Z,98779.25
2022-08-07T11:22:01.679Z,98785.00
2022-08-07T11:23:20.697Z,98775.66
2022-08-07T11:24:52.667Z,98780.59
2022-08-07T11:26:32.311Z,98775.06
2022-08-07T11:28:04.063Z,98777.59
2022-08-07T11:29:13.137Z,98780.56
2022-08-07T11:30:45.415Z,98777.56
2022-08-07T11:31:55.688Z,98779.97
2022-08-07T11:33:58.370Z,98773.66
2022-08-07T11:34:53.563Z,98774.13
2022-08-07T11:36:30.847Z,98778.09
2022-08-07T11:37:58.066Z,98770.03
2022-08-07T11:39:39.842Z,98762.34
2022-08-07T11:41:02.224Z,98769.22
2022-08-07T11:42:38.778Z,98762.84
2022-08-07T11:44:12.037Z,98759.94
2022-08-07T11:45:35.978Z,98762.38
2022-08-07T11:46:58.768Z,98766.88
2022-08-07T11:48:29.214Z,98762.78
2022-08-07T11:50:30.960Z,98758.66
2022-08-07T11:51:47.733Z,98769.44
2022-08-07T11:53:14.450Z,98763.94
2022-08-07T11:54:54.973Z,98769.50
2022-08-07T11:56:27.006Z,98764.72
2022-08-07T11:57:58.053Z,98773.09
2022-08-07T12:00:09.948Z,98763.41
2022-08-07T12:01:02.120Z,98760.97
2022-08-07T12:02:10.216Z,98763.28
2022-08-07T12:03:46.879Z,98750.75
2022-08-07T12:05:47.349Z,98747.91
2022-08-07T12:07:20.215Z,98757.81
2022-08-07T12:08:37.921Z,98757.34
2022-08-07T12:10:08.365Z,98748.13
2022-08-07T12:11:21.202Z,98760.75
2022-08-07T12:12:30.829Z,98747.50
2022-08-07T12:13:47.846Z,98756.63
2022-08-07T12:15:01.486Z,98755.03
2022-08-07T12:16:09.290Z,98757.41
2022-08-07T12:17:19.744Z,98747.78
2022-08-07T12:18:45.464Z,98751.66
2022-08-07T12:20:02.602Z,98746.50
2022-08-07T12:21:15.056Z,98746.31
2022-08-07T12:22:58.345Z,98734.00
2022-08-07T12:24:40.176Z,98744.28
2022-08-07T12:26:05.722Z,98734.50
2022-08-07T12:27:16.192Z,98737.16
2022-08-07T12:28:31.215Z,98745.84
2022-08-07T12:29:37.753Z,98740.63
2022-08-07T12:30:46.870Z,98739.06
2022-08-07T12:32:04.900Z,98738.66
2022-08-07T12:33:23.415Z,98736.41
2022-08-07T12:34:34.373Z,98729.13
2022-08-07T12:35:37.044Z,98728.38
2022-08-07T12:36:40.612Z,98725.03
2022-08-07T12:38:11.630Z,98729.00
2022-08-07T12:39:42.772Z,98725.91
2022-08-07T12:40:47.645Z,98727.41
2022-08-07T12:41:53.468Z,98728.94
2022-08-07T12:42:59.159Z,98727.31
2022-08-07T12:44:06.985Z,98720.31
2022-08-07T12:45:18.059Z,98729.53
2022-08-07T12:46:26.406Z,98725.91
2022-08-07T12:47:55.190Z,98712.84
2022-08-07T12:49:40.171Z,98718.56
2022-08-07T12:51:17.072Z,98724.00
2022-08-07T12:52:33.876Z,98720.03
2022-08-07T12:54:24.089Z,98730.38
2022-08-07T12:55:16.617Z,98717.25
2022-08-07T12:56:29.041Z,98716.81
2022-08-07T12:58:01.118Z,98715.56
2022-08-07T12:58:59.607Z,98715.13
2022-08-07T13:00:03.403Z,98717.28
2022-08-07T13:01:32.141Z,98715.69
2022-08-07T13:02:47.229Z,98712.84
2022-08-07T13:04:06.345Z,98706.44
2022-08-07T13:06:04.820Z,98706.13
2022-08-07T13:08:13.824Z,98702.56
2022-08-07T13:10:17.771Z,98709.00
2022-08-07T13:11:08.605Z,98704.28
2022-08-07T13:12:28.862Z,98710.44
2022-08-07T13:14:03.195Z,98696.66
2022-08-07T13:15:29.846Z,98694.69
2022-08-07T13:17:06.713Z,98700.47
2022-08-07T13:18:49.125Z,98701.47
2022-08-07T13:20:00.181Z,98695.34
2022-08-07T13:21:11.065Z,98706.63
2022-08-07T13:22:27.473Z,98700.41
2022-08-07T13:24:01.163Z,98693.31
2022-08-07T13:25:03.747Z,98699.53
2022-08-07T13:26:26.676Z,98697.66
2022-08-07T13:28:12.552Z,98693.59
2022-08-07T13:29:11.687Z,98691.22
2022-08-07T13:30:18.875Z,98680.81
2022-08-07T13:31:32.120Z,98676.59
2022-08-07T13:32:58.653Z,98686.84
2022-08-07T13:34:34.221Z,98680.13
2022-08-07T13:36:17.397Z,98670.59
2022-08-07T13:37:37.883Z,98672.00
2022-08-07T13:38:49.467Z,98670.75
2022-08-07T13:40:36.238Z,98676.63
2022-08-07T13:41:54.692Z,98675.38
2022-08-07T13:43:01.037Z,98663.41
2022-08-07T13:44:10.239Z,98670.72
2022-08-07T13:46:06.769Z,98674.00
2022-08-07T13:46:48.797Z,98661.72
2022-08-07T13:48:07.758Z,98664.34
2022-08-07T13:50:34.378Z,98665.56
2022-08-07T13:50:55.595Z,98660.56
2022-08-07T13:52:22.926Z,98658.88
2022-08-07T13:53:26.325Z,98654.91
2022-08-07T13:54:39.805Z,98656.78
2022-08-07T13:55:54.364Z,98658.47
2022-08-07T13:56:59.735Z,98652.66
2022-08-07T13:58:08.086Z,98645.16
2022-08-07T13:59:24.579Z,98647.56
2022-08-07T14:00:50.609Z,98648.16
2022-08-07T14:02:04.701Z,98640.50
2022-08-07T14:03:08.760Z,98640.44
2022-08-07T14:04:16.841Z,98634.88
2022-08-07T14:05:24.078Z,98642.50
2022-08-07T14:06:36.911Z,98645.97
2022-08-07T14:08:00.448Z,98641.16
2022-08-07T14:09:05.162Z,98641.50
2022-08-07T14:10:21.727Z,98646.63
2022-08-07T14:11:53.834Z,98635.34
2022-08-07T14:13:02.555Z,98636.22
2022-08-07T14:14:11.351Z,98632.19
2022-08-07T14:15:36.954Z,98634.44
2022-08-07T14:16:41.758Z,98634.63
2022-08-07T14:18:24.041Z,98637.63
2022-08-07T14:20:42.315Z,98633.28
2022-08-07T14:21:11.651Z,98630.66
2022-08-07T14:22:34.785Z,98624.47
2022-08-07T14:24:01.709Z,98627.75
2022-08-07T14:25:11.743Z,98621.13
2022-08-07T14:26:28.132Z,98611.63
2022-08-07T14:28:12.143Z,98619.97
2022-08-07T14:30:02.829Z,98615.13
2022-08-07T14:30:33.179Z,98618.69
2022-08-07T14:31:42.394Z,98619.00
2022-08-07T14:33:11.142Z,98620.31
2022-08-07T14:34:20.155Z,98624.38
2022-08-07T14:35:43.279Z,98618.44
2022-08-07T14:36:55.973Z,98614.94
2022-08-07T14:38:05.835Z,98620.38
2022-08-07T14:39:09.362Z,98618.00
2022-08-07T14:40:26.661Z,98615.91
2022-08-07T14:41:34.155Z,98611.50
2022-08-07T14:44:22.779Z,98621.41
2022-08-07T14:45:46.575Z,98614.19
2022-08-07T14:48:20.905Z,98617.16
2022-08-07T14:49:58.480Z,98617.91
2022-08-07T14:50:52.213Z,98616.94
2022-08-07T14:52:04.315Z,98613.31
2022-08-07T14:53:09.675Z,98615.94
2022-08-07T14:54:31.096Z,98606.06
2022-08-07T14:55:38.301Z,98607.38
2022-08-07T14:57:00.277Z,98612.78
2022-08-07T14:58:05.859Z,98608.38
2022-08-07T14:59:13.487Z,98615.41
2022-08-07T15:00:34.455Z,98607.50
2022-08-07T15:01:42.364Z,98607.50
2022-08-07T15:02:46.836Z,98606.34
2022-08-07T15:04:06.222Z,98597.00
2022-08-07T15:05:19.618Z,98598.75